Rowlett, TX

7:04 PM CDT on March 30, 2015 (GMT -0500)
Rowlett - Springfield Lakes | | Change Station
CLOSE
Current Station
Personal Weather Station
Location: Rowlett, TX
Elevation: 450 ft
Nearby Weather Stations

Elev 450 ft 32.92 °N, 96.59 °W | Updated 11 seconds ago

Overcast
Overcast
73.2 °F
Feels Like 74 °F
N
3.0
Wind Variable Wind from SSE
Gusts 10.0 mph

Today
High -- | Low -- °F
--% Chance of Precip.
Yesterday
High -- | Low -- °F
Precip. -- in
7:17 AM 7:44 PM
Waxing Gibbous, 83% visible
Pressure 30.05 in
Visibility 10.0 miles
Clouds Overcast 3300 ft
Heat Index 74 °F
Dew Point 65 °F
Humidity 76%
Rainfall 0.00 in
Snow Depth Not available.
UV 0.0 out of 12
Pollen 11.80 out of 12
Air Quality Not available.
Flu Activity Not available.
METAR KF46 302335Z AUTO 17005KT 10SM OVC033 22/18 A3005 RMK AO2 T02200179

More Conditions Fewer Conditions

Pressure 30.05 in
Visibility 10.0 miles
Clouds Overcast 3300 ft
Heat Index 74 °F
Dew Point 65 °F
Humidity 76%
Rainfall 0.00 in
Snow Depth Not available.
UV 0.0 out of 12
Pollen 11.80 out of 12
Air Quality Not available.
Flu Activity Not available.
METAR KF46 302335Z AUTO 17005KT 10SM OVC033 22/18 A3005 RMK AO2 T02200179

More Conditions Fewer Conditions

10-Day Weather Forecast

Almanac

Astronomy

Mar. 30, 2015 Rise Set
Actual Time
Civil Twilight
Nautical Twilight
Astronomical Twilight
Moon
Length of Visible Light
Length of Day
Tomorrow will be .
, % of the Moon is Illuminated

Today's Extremes

State Highs State Lows

Community

WunderPhotos

Upload Photos

1,809,618 photos uploaded!

WunderBlogs® & News

Nearby

Air Quality

  Air Quality AQ Index Pollutant
Not available.

Snow Depth

Station Depth Elevation

Earthquake Activity

City Distance Mag. Time & Date
Minimum magnitude displayed is 2.5.

Coastal Water Temperatures

Place Temperature

Stations

Nearby Weather Stations

Station Location Temp. Windchill Dew Point Humidity Wind Precip. Elev Updated Type